This is the latest recevied weather packets stored in our database for station/object KJ6LNH-1. If no packets are shown the sender has not sent any weather packets the latest 10 day(s).
| Time | Temp. | Humidity | Pressure | Rain* | Wind** | Luminosity | Snow |
|---|---|---|---|---|---|---|---|
| 1787877309 | 31.11° C | 32% | 1012.2 hPa | 0 mm | - | - | - |
| 1787877006 | 31.67° C | 32% | 1012.2 hPa | 0 mm | - | - | - |
| 1787876705 | 31.67° C | 30% | 1012.1 hPa | 0 mm | - | - | - |
| 1787876406 | 32.22° C | 29% | 1012 hPa | 0 mm | - | - | - |
| 1787876109 | 32.78° C | 28% | 1012 hPa | 0 mm | - | - | - |
| 1787875805 | 32.78° C | 28% | 1012 hPa | 0 mm | - | - | - |
| 1787875508 | 33.33° C | 26% | 1012 hPa | 0 mm | - | - | - |
| 1787875206 | 33.89° C | 26% | 1012 hPa | 0 mm | - | - | - |
| 1787874607 | 34.44° C | 23% | 1011.9 hPa | 0 mm | - | - | - |
| 1787874306 | 35° C | 23% | 1011.9 hPa | 0 mm | - | - | - |
| 1787873107 | 36.11° C | 22% | 1012.1 hPa | 0 mm | - | - | - |
| 1787872806 | 37.22° C | 21% | 1012 hPa | 0 mm | - | - | - |
| 1787872207 | 37.22° C | 21% | 1011.9 hPa | 0 mm | - | - | - |
| 1787870707 | 36.67° C | 22% | 1012.1 hPa | 0 mm | - | - | - |
| 1787869206 | 35° C | 24% | 1012.2 hPa | 0 mm | - | - | - |
| 1787868909 | 35° C | 25% | 1012.2 hPa | 0 mm | - | - | - |
| 1787868606 | 35.56° C | 25% | 1012.3 hPa | 0 mm | - | - | - |
| 1787867407 | 34.44° C | 26% | 1012.5 hPa | 0 mm | - | - | - |
| 1787867106 | 34.44° C | 26% | 1012.5 hPa | 0 mm | - | - | - |
| 1787866807 | 35° C | 26% | 1012.6 hPa | 0 mm | - | - | - |
| 1787866507 | 33.89° C | 26% | 1012.7 hPa | 0 mm | - | - | - |
| 1787866206 | 33.89° C | 25% | 1012.7 hPa | 0 mm | - | - | - |
| 1787865907 | 33.89° C | 25% | 1012.7 hPa | 0 mm | - | - | - |
| 1787865606 | 35° C | 25% | 1012.7 hPa | 0 mm | - | - | - |
| 1787865308 | 34.44° C | 26% | 1012.7 hPa | 0 mm | - | - | - |
* Rain latest hour (hover to see other rain measurements)
** Current wind speed in m/s (hover to see current wind gust speed)